This is the latest recevied weather packets stored in our database for station/object OK3MS-5. If no packets are shown the sender has not sent any weather packets the latest 10 day(s).
| Time | Temp. | Humidity | Pressure | Rain* | Wind** | Luminosity | Snow |
|---|---|---|---|---|---|---|---|
| 1787940002 | 18.33° C | 97% | 1013.8 hPa | 7.62 mm | - | 0 W/m² | - |
| 1787939704 | 18.33° C | 97% | 1013.6 hPa | 7.37 mm | - | 0 W/m² | - |
| 1787939404 | 18.33° C | 97% | 1013.6 hPa | 7.11 mm | - | 0 W/m² | - |
| 1787938203 | 23.33° C | 69% | 1012.4 hPa | 0 mm | - | 0 W/m² | - |
| 1787937909 | 23.89° C | 66% | 1011.6 hPa | 0 mm | - | 0 W/m² | - |
| 1787937606 | 23.89° C | 66% | 1010.9 hPa | 0 mm | - | 1 W/m² | - |
| 1787937305 | 24.44° C | 65% | 1010.7 hPa | 0 mm | - | 1 W/m² | - |
| 1787937003 | 24.44° C | 65% | 1010.5 hPa | 0 mm | - | 2 W/m² | - |
| 1787936707 | 24.44° C | 65% | 1010 hPa | 0 mm | - | 2 W/m² | - |
| 1787936404 | 24.44° C | 64% | 1009.7 hPa | 0 mm | - | 3 W/m² | - |
| 1787936102 | 25° C | 64% | 1009.4 hPa | 0 mm | - | 4 W/m² | - |
| 1787935809 | 25° C | 63% | 1009.2 hPa | 0 mm | - | 10 W/m² | - |
| 1787935503 | 25.56° C | 62% | 1008.7 hPa | 0 mm | - | 16 W/m² | - |
| 1787934904 | 27.22° C | 52% | 1008.3 hPa | 0 mm | - | 26 W/m² | - |
| 1787934605 | 27.78° C | 51% | 1008.1 hPa | 0 mm | - | 33 W/m² | - |
| 1787934303 | 28.33° C | 50% | 1008.3 hPa | 0 mm | - | 39 W/m² | - |
| 1787934002 | 28.33° C | 47% | 1008.3 hPa | 0 mm | - | 44 W/m² | - |
| 1787933704 | 28.33° C | 47% | 1008.4 hPa | 0 mm | - | 51 W/m² | - |
| 1787933404 | 28.33° C | 47% | 1008.6 hPa | 0 mm | - | 57 W/m² | - |
| 1787933106 | 28.33° C | 48% | 1008.6 hPa | 0 mm | - | 64 W/m² | - |
| 1787932805 | 28.33° C | 46% | 1008.4 hPa | 0 mm | - | 69 W/m² | - |
| 1787932504 | 28.33° C | 46% | 1008.5 hPa | 0 mm | - | 72 W/m² | - |
| 1787932204 | 28.89° C | 45% | 1008.3 hPa | 0 mm | - | 80 W/m² | - |
| 1787931903 | 28.89° C | 44% | 1008.4 hPa | 0 mm | - | 86 W/m² | - |
| 1787931602 | 28.89° C | 45% | 1008.5 hPa | 0 mm | - | 89 W/m² | - |
* Rain latest hour (hover to see other rain measurements)
** Current wind speed in m/s (hover to see current wind gust speed)